Time;durP1;ratioP1;P1;durP2;ratioP2;P2;SDS_P1;SDS_P2;PMS_P1;PMS_P2;Temp;Humidity;BMP_temperature;BMP_pressure;BME280_temperature;BME280_humidity;BME280_pressure;Samples;Min_cycle;Max_cycle;Signal;HPM_P1;HPM_P2
2023/02/18 00:00:59;;;;;;;22.10;14.25;;;9.50;99.90;;;;;;5051579;28;20496;-76
2023/02/18 00:03:26;;;;;;;25.00;14.05;;;9.60;99.90;;;;;;5033571;28;20044;-76
2023/02/18 00:05:51;;;;;;;21.60;12.00;;;9.60;99.90;;;;;;5051396;28;20028;-77
2023/02/18 00:08:17;;;;;;;;;;;9.60;99.90;;;;;;5033904;28;20455;-76
2023/02/18 00:10:43;;;;;;;18.02;11.75;;;9.60;99.90;;;;;;5051522;28;20365;-76
2023/02/18 00:13:08;;;;;;;;;;;9.70;99.90;;;;;;5051744;28;20021;-76
2023/02/18 00:15:35;;;;;;;17.15;11.10;;;9.70;99.90;;;;;;5050986;28;19934;-76
2023/02/18 00:18:01;;;;;;;18.20;11.05;;;9.80;99.90;;;;;;5033511;28;20059;-77
2023/02/18 00:20:26;;;;;;;;;;;9.80;99.90;;;;;;5034034;28;20108;-77
2023/02/18 00:22:52;;;;;;;17.67;9.93;;;9.80;99.90;;;;;;5033325;28;19912;-76
2023/02/18 00:25:18;;;;;;;;;;;9.90;99.90;;;;;;5033603;28;20124;-76
2023/02/18 00:27:43;;;;;;;24.50;9.45;;;9.90;99.90;;;;;;5051113;28;19952;-75
2023/02/18 00:30:09;;;;;;;;;;;9.90;99.90;;;;;;5033415;28;20677;-77
2023/02/18 00:32:35;;;;;;;17.42;9.52;;;9.90;99.90;;;;;;5032979;28;19915;-76
2023/02/18 00:35:00;;;;;;;;;;;9.90;99.90;;;;;;5033340;28;20515;-76
2023/02/18 00:37:26;;;;;;;14.10;9.43;;;10.00;99.90;;;;;;5032898;28;20007;-76
2023/02/18 00:39:52;;;;;;;;;;;10.00;99.90;;;;;;5051391;28;20035;-78
2023/02/18 00:42:17;;;;;;;16.58;8.80;;;10.00;99.90;;;;;;5032856;28;19940;-78
2023/02/18 00:44:43;;;;;;;;;;;10.00;99.90;;;;;;5033276;28;20123;-76
2023/02/18 00:47:08;;;;;;;15.68;8.05;;;10.00;99.90;;;;;;5050452;28;19908;-76
2023/02/18 00:49:34;;;;;;;;;;;10.10;99.90;;;;;;5033034;28;20447;-76
2023/02/18 00:52:00;;;;;;;13.13;7.90;;;10.10;99.90;;;;;;5050586;28;20288;-76
2023/02/18 00:54:25;;;;;;;;;;;10.00;99.90;;;;;;5033157;28;20033;-76
2023/02/18 00:56:51;;;;;;;12.25;8.00;;;10.10;99.90;;;;;;5032526;28;19966;-76
2023/02/18 00:59:16;;;;;;;;;;;10.10;99.90;;;;;;5050940;28;20077;-76
2023/02/18 01:01:42;;;;;;;16.83;7.93;;;10.20;99.90;;;;;;5032506;28;19908;-77
2023/02/18 01:04:08;;;;;;;;;;;10.20;99.90;;;;;;5032917;28;20032;-77
2023/02/18 01:06:34;;;;;;;13.18;7.43;;;10.20;99.90;;;;;;5050336;28;20415;-77
2023/02/18 01:08:59;;;;;;;;;;;10.30;99.90;;;;;;5032810;28;20477;-76
2023/02/18 01:11:25;;;;;;;11.63;6.63;;;10.20;99.90;;;;;;5032323;28;19908;-76
2023/02/18 01:13:51;;;;;;;;;;;10.20;99.90;;;;;;5033056;28;20037;-76
2023/02/18 01:16:17;;;;;;;10.50;6.60;;;10.20;99.90;;;;;;5050136;28;19916;-76
2023/02/18 01:18:42;;;;;;;11.65;6.88;;;10.20;99.90;;;;;;5050208;28;20032;-76
2023/02/18 01:21:09;;;;;;;;;;;10.20;99.90;;;;;;5050540;28;20029;-74
2023/02/18 01:23:37;;;;;;;11.65;6.63;;;10.20;99.90;;;;;;5050105;28;19908;-75
2023/02/18 01:26:03;;;;;;;13.30;6.72;;;10.20;99.90;;;;;;5031704;28;20037;-75
2023/02/18 01:28:28;;;;;;;;;;;10.20;99.90;;;;;;5049677;28;20040;-76
2023/02/18 01:30:54;;;;;;;12.38;7.15;;;10.20;99.90;;;;;;5049606;28;19911;-76
2023/02/18 01:33:19;;;;;;;;;;;10.20;99.90;;;;;;5032125;28;20059;-76
2023/02/18 01:35:45;;;;;;;12.88;6.38;;;10.20;99.90;;;;;;5049858;28;20205;-75
2023/02/18 01:38:11;;;;;;;;;;;10.20;99.90;;;;;;5049719;28;20033;-76
2023/02/18 01:40:50;;;;;;;11.70;6.70;;;10.20;99.90;;;;;;5031720;28;19999;-76
2023/02/18 01:43:16;;;;;;;15.52;6.90;;;10.20;99.90;;;;;;5049578;28;20079;-76
2023/02/18 01:45:51;;;;;;;8.85;5.28;;;10.20;99.90;;;;;;5049466;28;20037;-76
2023/02/18 01:48:43;;;;;;;10.38;6.07;;;10.20;99.90;;;;;;5049508;28;20052;-76
2023/02/18 01:51:25;;;;;;;10.77;5.38;;;10.20;99.90;;;;;;5030287;28;20426;-76
2023/02/18 01:53:56;;;;;;;13.05;5.97;;;10.20;99.90;;;;;;5049494;28;20048;-76
2023/02/18 01:56:27;;;;;;;10.77;5.85;;;10.30;99.90;;;;;;5049427;28;20075;-75
2023/02/18 01:58:55;;;;;;;8.18;5.55;;;10.30;99.90;;;;;;5049670;28;20481;-76
2023/02/18 02:01:22;;;;;;;8.90;5.03;;;10.30;99.90;;;;;;5049383;28;20021;-76
2023/02/18 02:03:47;;;;;;;9.30;5.45;;;10.30;99.90;;;;;;5049023;28;20583;-77
2023/02/18 02:06:15;;;;;;;;;;;10.30;99.90;;;;;;5049320;28;20038;-77
2023/02/18 02:08:41;;;;;;;9.32;4.55;;;10.40;99.90;;;;;;5049212;28;19913;-76
2023/02/18 02:11:13;;;;;;;;;;;10.40;99.90;;;;;;5049495;28;20401;-76
2023/02/18 02:13:51;;;;;;;6.13;3.65;;;10.40;99.90;;;;;;5049081;28;20047;-76
2023/02/18 02:16:45;;;;;;;6.50;4.15;;;10.40;99.90;;;;;;5031136;28;20041;-77
2023/02/18 02:19:16;;;;;;;6.47;3.72;;;10.40;99.90;;;;;;5048391;28;20509;-77
2023/02/18 02:22:13;;;;;;;7.72;3.17;;;10.40;99.90;;;;;;5030945;28;20033;-77
2023/02/18 02:24:50;;;;;;;7.85;3.50;;;10.50;99.90;;;;;;5048785;28;20021;-77
2023/02/18 02:27:45;;;;;;;6.30;3.28;;;10.40;99.90;;;;;;5048827;28;20043;-77
2023/02/18 02:30:35;;;;;;;6.85;2.92;;;10.40;99.90;;;;;;5048728;28;20864;-75
2023/02/18 02:33:04;;;;;;;5.57;2.60;;;10.50;99.90;;;;;;5030571;28;20094;-76
2023/02/18 02:35:43;;;;;;;4.15;2.83;;;10.50;99.90;;;;;;5030994;28;20064;-76
2023/02/18 02:38:29;;;;;;;4.18;2.72;;;10.40;99.90;;;;;;5030762;28;20036;-76
2023/02/18 02:41:20;;;;;;;5.00;2.55;;;10.40;99.90;;;;;;5048795;28;20029;-76
2023/02/18 02:43:52;;;;;;;6.60;2.60;;;10.50;99.90;;;;;;5030939;28;20124;-77
2023/02/18 02:46:30;;;;;;;5.07;2.40;;;10.50;99.90;;;;;;5048535;28;20033;-76
2023/02/18 02:49:18;;;;;;;4.70;2.55;;;10.60;99.90;;;;;;5047921;28;20602;-77
2023/02/18 02:52:03;;;;;;;5.15;2.13;;;10.70;99.90;;;;;;5030672;28;20025;-77
2023/02/18 02:54:29;;;;;;;4.72;2.63;;;10.70;99.90;;;;;;5048200;28;20033;-76
2023/02/18 02:57:27;;;;;;;3.38;1.83;;;10.70;99.90;;;;;;5030532;28;20612;-78
2023/02/18 03:00:01;;;;;;;2.97;1.40;;;10.80;99.90;;;;;;5019163;28;20513;-76
2023/02/18 03:02:29;;;;;;;2.83;1.00;;;10.80;99.90;;;;;;5048308;28;20057;-77
2023/02/18 03:05:06;;;;;;;2.05;0.80;;;11.10;99.90;;;;;;5030438;28;20075;-77
2023/02/18 03:07:41;;;;;;;2.78;0.70;;;11.20;99.90;;;;;;5030373;28;20043;-76
2023/02/18 03:10:28;;;;;;;1.92;0.80;;;11.40;99.90;;;;;;5048297;28;20531;-77
2023/02/18 03:13:00;;;;;;;3.00;0.80;;;11.60;99.90;;;;;;5030345;28;20083;-76
2023/02/18 03:15:38;;;;;;;2.50;0.80;;;11.70;99.90;;;;;;5030328;28;20417;-76
2023/02/18 03:18:17;;;;;;;1.65;0.90;;;11.90;99.90;;;;;;5048156;28;20029;-76
2023/02/18 03:20:55;;;;;;;1.17;0.45;;;12.00;99.90;;;;;;5030277;28;20429;-77
2023/02/18 03:23:27;;;;;;;2.90;0.60;;;12.10;99.90;;;;;;5030304;28;20402;-75
2023/02/18 03:25:54;;;;;;;3.67;0.70;;;12.20;99.90;;;;;;5048077;28;20029;-75
2023/02/18 03:28:23;;;;;;;1.20;0.60;;;12.30;99.90;;;;;;5048124;28;20659;-76
2023/02/18 03:31:01;;;;;;;1.50;0.50;;;12.30;99.90;;;;;;5048277;28;20036;-76
2023/02/18 03:33:32;;;;;;;12.30;0.80;;;12.30;99.90;;;;;;5030121;28;20079;-76
2023/02/18 03:35:58;;;;;;;1.55;0.70;;;12.30;99.90;;;;;;5030094;28;20029;-76
2023/02/18 03:38:39;;;;;;;1.85;0.63;;;12.40;99.90;;;;;;5047698;28;20094;-75
2023/02/18 03:41:05;;;;;;;2.45;0.70;;;12.50;99.90;;;;;;5048071;28;20144;-75
2023/02/18 03:43:31;;;;;;;;;;;12.40;99.90;;;;;;5048363;28;20167;-76
2023/02/18 03:45:57;;;;;;;2.70;0.60;;;12.40;99.90;;;;;;5047930;28;19927;-76
2023/02/18 03:48:23;;;;;;;3.25;0.70;;;12.40;99.90;;;;;;5029883;28;20151;-76
2023/02/18 03:50:48;;;;;;;;;;;12.50;99.90;;;;;;5030081;28;20124;-76
2023/02/18 03:53:14;;;;;;;1.88;0.77;;;12.60;99.90;;;;;;5047871;28;20066;-76
2023/02/18 03:55:41;;;;;;;;;;;12.70;99.90;;;;;;5030441;28;20071;-75
2023/02/18 03:58:07;;;;;;;1.48;0.68;;;12.70;99.90;;;;;;5048114;28;19916;-76
2023/02/18 04:00:32;;;;;;;;;;;12.70;99.90;;;;;;5048741;28;20032;-76
2023/02/18 04:02:58;;;;;;;2.30;0.55;;;12.70;99.90;;;;;;5051673;28;20280;-76
2023/02/18 04:05:24;;;;;;;;;;;12.70;99.90;;;;;;5051752;28;20029;-75
2023/02/18 04:07:49;;;;;;;2.88;0.60;;;12.80;99.90;;;;;;5033223;28;19908;-75
2023/02/18 04:10:15;;;;;;;;;;;12.70;99.90;;;;;;5033774;28;20041;-75
2023/02/18 04:12:41;;;;;;;1.55;0.70;;;12.70;99.90;;;;;;5050185;28;20472;-76
2023/02/18 04:15:06;;;;;;;;;;;12.70;99.90;;;;;;5051629;28;20082;-76
2023/02/18 04:17:33;;;;;;;1.95;0.70;;;12.70;99.90;;;;;;5051680;28;19916;-76
2023/02/18 04:19:59;;;;;;;2.72;0.90;;;12.70;99.90;;;;;;5033190;28;20032;-76
2023/02/18 04:22:24;;;;;;;;;;;12.70;99.90;;;;;;5033453;28;20485;-76
2023/02/18 04:24:50;;;;;;;1.80;1.00;;;12.70;99.90;;;;;;5051451;28;19908;-76
2023/02/18 04:27:15;;;;;;;2.90;0.93;;;12.70;99.90;;;;;;5051066;28;20033;-76
2023/02/18 04:29:41;;;;;;;;;;;12.70;99.90;;;;;;5033408;28;20021;-76
2023/02/18 04:32:07;;;;;;;2.17;0.98;;;12.60;99.90;;;;;;5033496;28;20416;-75
2023/02/18 04:34:32;;;;;;;;;;;12.60;99.90;;;;;;5050939;28;20059;-76
2023/02/18 04:36:58;;;;;;;1.98;0.80;;;12.50;99.90;;;;;;5050693;28;20305;-77
2023/02/18 04:39:23;;;;;;;;;;;12.40;99.90;;;;;;5051370;28;20486;-75
2023/02/18 04:41:49;;;;;;;2.38;0.68;;;12.30;99.90;;;;;;5033024;28;19908;-77
2023/02/18 04:44:15;;;;;;;;;;;12.30;99.90;;;;;;5051229;28;20084;-76
2023/02/18 04:46:40;;;;;;;2.10;0.68;;;12.30;99.90;;;;;;5032955;28;20313;-76
2023/02/18 04:49:06;;;;;;;;;;;12.30;99.90;;;;;;5033388;28;20092;-76
2023/02/18 04:51:32;;;;;;;2.35;0.70;;;12.20;99.90;;;;;;5032887;28;19905;-76
2023/02/18 04:53:57;;;;;;;;;;;12.30;99.90;;;;;;5051140;28;20033;-76
2023/02/18 04:56:23;;;;;;;2.13;0.90;;;12.20;99.90;;;;;;5049969;28;19924;-77
2023/02/18 04:58:48;;;;;;;;;;;12.10;99.90;;;;;;5033146;28;20036;-77
2023/02/18 05:01:14;;;;;;;1.90;0.80;;;12.10;99.90;;;;;;5032504;28;19908;-77
2023/02/18 05:03:39;;;;;;;;;;;12.10;99.90;;;;;;5033049;28;20024;-76
2023/02/18 05:06:05;;;;;;;3.83;1.10;;;12.20;99.90;;;;;;5050377;28;19912;-76
2023/02/18 05:08:31;;;;;;;;;;;12.10;99.90;;;;;;5050777;28;20032;-77
2023/02/18 05:10:57;;;;;;;1.38;0.68;;;12.00;99.90;;;;;;5050360;28;19908;-77
2023/02/18 05:13:22;;;;;;;;;;;12.00;99.90;;;;;;5049948;28;20094;-76
2023/02/18 05:15:48;;;;;;;5.07;2.60;;;11.90;99.90;;;;;;5050246;28;19973;-77
2023/02/18 05:18:14;;;;;;;;;;;11.80;99.90;;;;;;5050502;28;20022;-77
2023/02/18 05:20:39;;;;;;;4.35;2.17;;;11.70;99.90;;;;;;5031735;28;19916;-76
2023/02/18 05:23:05;;;;;;;;;;;11.60;99.90;;;;;;5050373;28;20029;-77
2023/02/18 05:25:31;;;;;;;1.80;1.08;;;11.60;99.90;;;;;;5050020;28;20007;-77
2023/02/18 05:27:56;;;;;;;;;;;11.50;99.90;;;;;;5050231;28;20025;-77
2023/02/18 05:30:23;;;;;;;3.53;0.85;;;11.40;99.90;;;;;;5049695;28;20015;-77
2023/02/18 05:32:48;;;;;;;3.60;0.90;;;11.40;99.90;;;;;;5049585;28;20485;-76
2023/02/18 05:35:14;;;;;;;;;;;11.30;99.90;;;;;;5050065;28;20052;-76
2023/02/18 05:37:39;;;;;;;5.80;1.20;;;11.20;99.90;;;;;;5049841;28;20556;-76
2023/02/18 05:40:05;;;;;;;;;;;11.20;99.90;;;;;;5050205;28;20397;-76
2023/02/18 05:42:31;;;;;;;2.80;1.00;;;11.10;99.90;;;;;;5031724;28;20385;-76
2023/02/18 05:44:57;;;;;;;1.70;1.02;;;11.10;99.90;;;;;;5031603;28;20040;-76
2023/02/18 05:47:23;;;;;;;1.92;0.90;;;11.10;99.90;;;;;;5049630;28;20107;-77
2023/02/18 05:49:49;;;;;;;;;;;11.00;99.90;;;;;;5050010;28;20116;-75
2023/02/18 05:52:16;;;;;;;2.60;1.50;;;10.90;99.90;;;;;;5031291;28;19942;-76
2023/02/18 05:54:43;;;;;;;3.10;1.08;;;10.90;99.90;;;;;;5031844;28;20029;-76
2023/02/18 05:57:12;;;;;;;4.50;1.13;;;10.80;99.90;;;;;;5031229;28;20520;-75
2023/02/18 05:59:37;;;;;;;1.95;0.85;;;10.80;99.90;;;;;;5049109;28;20032;-76
2023/02/18 06:02:03;;;;;;;;;;;10.80;99.90;;;;;;5031550;28;20786;-75
2023/02/18 06:04:29;;;;;;;2.28;0.80;;;10.80;99.90;;;;;;5049381;28;19912;-75
2023/02/18 06:06:55;;;;;;;;;;;10.80;99.90;;;;;;5049663;28;20134;-75
2023/02/18 06:09:21;;;;;;;3.47;1.20;;;10.80;99.90;;;;;;5049320;28;20361;-76
2023/02/18 06:11:46;;;;;;;3.22;1.10;;;10.80;99.90;;;;;;5049129;28;20788;-76
2023/02/18 06:14:12;;;;;;;;;;;10.80;99.90;;;;;;5031546;28;20107;-76
2023/02/18 06:16:38;;;;;;;2.30;1.25;;;10.80;99.90;;;;;;5048498;28;20451;-75
2023/02/18 06:19:03;;;;;;;;;;;10.70;99.90;;;;;;5049560;28;20489;-75
2023/02/18 06:21:29;;;;;;;2.40;1.10;;;10.70;99.90;;;;;;5031216;28;19988;-76
2023/02/18 06:23:55;;;;;;;;;;;10.80;99.90;;;;;;5049066;28;20032;-76
2023/02/18 06:26:20;;;;;;;2.38;1.08;;;10.80;99.90;;;;;;5048633;28;20295;-76
2023/02/18 06:28:46;;;;;;;;;;;10.80;99.90;;;;;;5031525;28;20039;-76
2023/02/18 06:31:12;;;;;;;3.88;1.23;;;10.80;99.90;;;;;;5048669;28;19905;-74
2023/02/18 06:33:38;;;;;;;2.47;1.00;;;10.80;99.90;;;;;;5048478;28;20075;-75
2023/02/18 06:36:06;;;;;;;;;;;10.80;99.90;;;;;;5049330;28;20033;-76
2023/02/18 06:38:32;;;;;;;5.35;1.10;;;10.80;99.90;;;;;;5048648;28;20008;-77
2023/02/18 06:40:58;;;;;;;2.72;1.08;;;10.80;99.90;;;;;;5048420;28;20082;-75
2023/02/18 06:43:24;;;;;;;;;;;10.80;99.90;;;;;;5048880;28;20028;-76
2023/02/18 06:45:50;;;;;;;2.63;1.10;;;10.80;99.90;;;;;;5030895;28;19931;-76
2023/02/18 06:48:17;;;;;;;3.17;1.40;;;10.80;99.90;;;;;;5030133;28;20290;-76
2023/02/18 06:50:43;;;;;;;2.38;1.48;;;10.90;99.90;;;;;;5048525;28;20067;-76
2023/02/18 06:53:10;;;;;;;3.40;1.70;;;10.80;99.90;;;;;;5030557;28;20032;-75
2023/02/18 06:55:36;;;;;;;2.63;1.70;;;10.90;99.90;;;;;;5048011;28;20143;-76
2023/02/18 06:58:01;;;;;;;;;;;10.80;99.90;;;;;;5048774;28;20027;-77
2023/02/18 07:00:27;;;;;;;3.72;1.33;;;10.80;99.90;;;;;;5030208;28;19908;-77
2023/02/18 07:02:53;;;;;;;;;;;10.80;99.90;;;;;;5030877;28;20039;-77
2023/02/18 07:05:18;;;;;;;2.80;1.52;;;10.70;99.90;;;;;;5047698;28;20388;-76
2023/02/18 07:07:44;;;;;;;;;;;10.70;99.90;;;;;;5030669;28;20036;-75
2023/02/18 07:10:10;;;;;;;2.20;1.52;;;10.80;99.90;;;;;;5048204;28;19905;-75
2023/02/18 07:12:36;;;;;;;3.88;1.17;;;10.80;99.90;;;;;;5030121;28;20043;-75
2023/02/18 07:15:02;;;;;;;;;;;10.80;99.90;;;;;;5030507;28;20021;-75
2023/02/18 07:17:28;;;;;;;2.65;1.20;;;10.80;99.90;;;;;;5048110;28;19912;-75
2023/02/18 07:19:55;;;;;;;;;;;10.80;99.90;;;;;;5048633;28;20400;-75
2023/02/18 07:22:21;;;;;;;2.00;1.00;;;10.90;99.90;;;;;;5048088;28;19938;-76
2023/02/18 07:24:53;;;;;;;3.30;1.48;;;11.00;99.90;;;;;;5029989;28;20094;-76
2023/02/18 07:27:20;;;;;;;4.78;2.10;;;11.10;99.90;;;;;;5047878;28;20032;-78
2023/02/18 07:29:46;;;;;;;2.30;1.35;;;11.10;99.90;;;;;;5048138;28;20023;-77
2023/02/18 07:32:12;;;;;;;;;;;11.20;99.90;;;;;;5030497;28;20025;-77
2023/02/18 07:34:38;;;;;;;2.53;1.67;;;11.20;99.90;;;;;;5029913;28;20039;-77
2023/02/18 07:37:08;;;;;;;;;;;11.20;99.90;;;;;;5033654;28;20568;-78
2023/02/18 07:39:34;;;;;;;2.92;1.85;;;11.20;99.90;;;;;;5033971;28;19909;-77
2023/02/18 07:42:02;;;;;;;3.80;1.52;;;11.20;99.90;;;;;;5034160;28;20036;-78
2023/02/18 07:44:27;;;;;;;3.28;1.42;;;11.20;99.90;;;;;;5033548;28;20028;-77
2023/02/18 07:46:53;;;;;;;;;;;11.20;99.90;;;;;;5051904;28;20021;-77
2023/02/18 07:49:18;;;;;;;2.42;1.05;;;11.30;99.90;;;;;;5033764;28;19908;-77
2023/02/18 07:51:46;;;;;;;;;;;11.20;99.90;;;;;;5034357;28;20027;-77
2023/02/18 07:54:12;;;;;;;1.60;1.00;;;11.30;99.90;;;;;;5051743;28;19909;-76
2023/02/18 07:56:37;;;;;;;;;;;11.30;99.90;;;;;;5052352;28;20044;-76
2023/02/18 07:59:03;;;;;;;2.60;1.05;;;11.30;99.90;;;;;;5033676;28;19913;-77
2023/02/18 08:01:28;;;;;;;;;;;11.30;99.90;;;;;;5033976;28;20386;-76
2023/02/18 08:03:54;;;;;;;1.73;1.15;;;11.30;99.90;;;;;;5033421;28;19916;-76
2023/02/18 08:06:21;;;;;;;;;;;11.20;99.90;;;;;;5051920;28;20556;-77
2023/02/18 08:08:47;;;;;;;3.55;1.00;;;11.20;99.90;;;;;;5051694;28;19912;-77
2023/02/18 08:11:12;;;;;;;;;;;11.10;99.90;;;;;;5034064;28;20028;-77
2023/02/18 08:13:38;;;;;;;10.88;5.43;;;11.10;99.90;;;;;;5051463;28;19904;-78
2023/02/18 08:16:04;;;;;;;;;;;11.10;99.90;;;;;;5051842;28;20055;-78
2023/02/18 08:18:29;;;;;;;18.05;8.18;;;11.10;99.90;;;;;;5051008;28;19948;-76
2023/02/18 08:20:55;;;;;;;;;;;11.10;99.90;;;;;;5033634;28;20638;-77
2023/02/18 08:23:21;;;;;;;75.75;34.40;;;11.10;99.90;;;;;;5033306;28;20341;-77
2023/02/18 08:25:52;;;;;;;18.92;9.10;;;11.10;99.90;;;;;;5033316;28;20044;-77
2023/02/18 08:28:22;;;;;;;52.03;25.58;;;11.20;99.90;;;;;;5050921;28;20025;-77
2023/02/18 08:30:51;;;;;;;57.60;27.77;;;11.20;99.90;;;;;;5032476;28;20120;-77
2023/02/18 08:33:18;;;;;;;43.80;20.67;;;11.20;99.90;;;;;;5050149;28;20087;-77
2023/02/18 08:35:48;;;;;;;64.60;29.77;;;11.30;99.90;;;;;;5050879;28;20375;-76
2023/02/18 08:38:13;;;;;;;21.42;10.85;;;11.30;99.90;;;;;;5032914;28;20079;-76
2023/02/18 08:40:39;;;;;;;;;;;11.50;99.90;;;;;;5051237;28;20029;-77
2023/02/18 08:43:05;;;;;;;28.98;14.88;;;11.50;99.90;;;;;;5033013;28;19908;-77
2023/02/18 08:45:31;;;;;;;;;;;11.70;99.90;;;;;;5050874;28;20591;-76
2023/02/18 08:47:57;;;;;;;23.27;10.48;;;12.10;99.90;;;;;;5049274;28;19912;-76
2023/02/18 08:50:25;;;;;;;;;;;12.50;99.90;;;;;;5033051;28;20029;-77
2023/02/18 08:52:52;;;;;;;21.35;10.23;;;12.80;99.90;;;;;;5050842;28;19914;-77
2023/02/18 08:55:20;;;;;;;21.33;10.25;;;13.10;99.90;;;;;;5032640;28;20029;-76
2023/02/18 08:57:47;;;;;;;27.58;10.60;;;13.20;99.90;;;;;;5050657;28;20029;-78
2023/02/18 09:00:16;;;;;;;14.90;7.35;;;13.30;99.90;;;;;;5050421;28;20039;-76
2023/02/18 09:02:41;;;;;;;9.20;4.97;;;13.30;99.90;;;;;;5050510;28;20607;-77
2023/02/18 09:05:08;;;;;;;;;;;13.20;99.90;;;;;;5050853;28;20032;-76
2023/02/18 09:07:35;;;;;;;7.65;4.40;;;13.10;99.90;;;;;;5050373;28;20289;-77
2023/02/18 09:10:00;;;;;;;11.52;4.60;;;12.90;99.90;;;;;;5032356;28;20037;-78
2023/02/18 09:12:27;;;;;;;;;;;12.90;99.90;;;;;;5050477;28;20078;-77
2023/02/18 09:14:52;;;;;;;17.70;8.77;;;12.80;99.90;;;;;;5050324;28;19908;-77
2023/02/18 09:17:18;;;;;;;;;;;12.70;99.90;;;;;;5032396;28;20041;-76
2023/02/18 09:19:44;;;;;;;8.18;3.45;;;12.70;99.90;;;;;;5032454;28;19909;-76
2023/02/18 09:22:09;;;;;;;9.18;3.88;;;12.70;99.90;;;;;;5032079;28;20115;-77
2023/02/18 09:24:36;;;;;;;;;;;12.50;99.90;;;;;;5050421;28;20036;-78
2023/02/18 09:27:03;;;;;;;3.63;1.60;;;12.50;99.90;;;;;;5048507;28;19912;-77
2023/02/18 09:29:28;;;;;;;13.95;3.70;;;12.50;99.90;;;;;;5049922;28;20075;-77
2023/02/18 09:31:54;;;;;;;;;;;12.50;99.90;;;;;;5032180;28;20355;-75
2023/02/18 09:34:19;;;;;;;9.95;2.78;;;12.40;99.90;;;;;;5049725;28;19917;-77
2023/02/18 09:36:46;;;;;;;19.30;5.15;;;12.40;99.90;;;;;;5049402;28;20918;-76
2023/02/18 09:39:12;;;;;;;14.02;4.90;;;12.40;99.90;;;;;;5031054;28;20098;-76
2023/02/18 09:41:50;;;;;;;4.90;1.67;;;12.40;99.90;;;;;;5049150;28;20013;-77
2023/02/18 09:44:16;;;;;;;10.43;3.95;;;12.30;99.90;;;;;;5031670;28;20055;-77
2023/02/18 09:46:45;;;;;;;;;;;12.40;99.90;;;;;;5031654;28;20402;-76
2023/02/18 09:49:18;;;;;;;11.82;3.60;;;12.50;99.90;;;;;;5048851;28;20301;-77
2023/02/18 09:51:45;;;;;;;12.82;3.60;;;12.60;99.90;;;;;;5031487;28;20021;-77
2023/02/18 09:54:13;;;;;;;11.00;2.88;;;12.60;99.90;;;;;;5049073;28;20039;-76
2023/02/18 09:56:41;;;;;;;7.90;2.70;;;12.70;99.90;;;;;;5048525;28;20095;-77
2023/02/18 09:59:13;;;;;;;7.03;2.17;;;12.70;99.90;;;;;;5048400;28;20029;-77
2023/02/18 10:01:40;;;;;;;10.40;3.60;;;12.70;99.90;;;;;;5061852;28;20040;-77
2023/02/18 10:04:22;;;;;;;9.43;2.55;;;12.80;99.90;;;;;;5068979;28;20040;-77
2023/02/18 10:06:50;;;;;;;16.60;4.50;;;12.80;99.90;;;;;;5068590;28;20544;-77
2023/02/18 10:09:37;;;;;;;9.02;2.42;;;12.80;99.90;;;;;;5041611;28;20029;-77
2023/02/18 10:12:21;;;;;;;10.77;3.47;;;12.90;99.90;;;;;;5067685;28;20119;-77
2023/02/18 10:14:54;;;;;;;16.38;4.05;;;12.90;99.90;;;;;;5068009;28;20118;-76
2023/02/18 10:17:23;;;;;;;9.90;3.35;;;13.00;99.90;;;;;;5067092;28;20072;-78
2023/02/18 10:19:51;;;;;;;11.23;2.97;;;12.90;99.90;;;;;;5066223;28;20404;-78
2023/02/18 10:22:18;;;;;;;10.48;3.75;;;12.90;99.90;;;;;;5067912;28;20028;-77
2023/02/18 10:25:06;;;;;;;11.70;3.35;;;12.80;99.90;;;;;;5068883;28;20028;-77
2023/02/18 10:27:37;;;;;;;18.10;4.68;;;12.80;99.90;;;;;;5066041;28;20162;-77
2023/02/18 10:30:14;;;;;;;15.07;4.53;;;12.70;99.90;;;;;;5050631;28;20029;-77
2023/02/18 10:32:43;;;;;;;12.40;3.65;;;12.70;99.90;;;;;;5047969;28;20500;-77
2023/02/18 10:35:20;;;;;;;11.32;3.65;;;12.70;99.90;;;;;;5030480;28;20143;-77
2023/02/18 10:38:43;;;;;;;8.73;2.85;;;12.70;99.90;;;;;;5047464;28;20068;-77
2023/02/18 10:41:26;;;;;;;9.25;3.38;;;12.70;99.90;;;;;;4986814;28;20027;-77
2023/02/18 10:44:05;;;;;;;16.73;7.40;;;12.70;99.90;;;;;;4986883;28;20027;-77
2023/02/18 10:46:55;;;;;;;13.60;6.55;;;12.70;99.90;;;;;;5027722;28;20777;-77
2023/02/18 10:49:36;;;;;;;21.27;7.85;;;12.80;99.90;;;;;;5030617;28;20027;-77
2023/02/18 10:52:04;;;;;;;9.40;5.55;;;12.70;99.90;;;;;;5030481;28;20035;-78
2023/02/18 10:54:52;;;;;;;6.57;2.78;;;12.70;99.90;;;;;;5047853;28;20031;-77
2023/02/18 10:57:20;;;;;;;15.82;6.43;;;12.70;99.90;;;;;;5048144;28;20540;-75
2023/02/18 11:00:17;;;;;;;13.10;5.80;;;12.50;99.90;;;;;;5048111;28;20025;-77
2023/02/18 11:02:44;;;;;;;13.00;5.45;;;12.50;99.90;;;;;;5047733;28;20144;-77
2023/02/18 11:05:25;;;;;;;13.02;4.68;;;12.40;99.90;;;;;;5030209;28;20491;-76
2023/02/18 11:07:55;;;;;;;10.82;3.22;;;12.40;99.90;;;;;;5048415;28;20033;-77
2023/02/18 11:10:34;;;;;;;9.38;3.83;;;12.30;99.90;;;;;;5029265;28;20025;-77
2023/02/18 11:13:02;;;;;;;7.68;3.08;;;12.40;99.90;;;;;;5030473;28;20033;-77
2023/02/18 11:15:29;;;;;;;12.52;4.15;;;12.40;99.90;;;;;;5048164;28;20048;-77
2023/02/18 11:17:58;;;;;;;17.15;4.93;;;12.50;99.90;;;;;;5030301;28;20028;-77
2023/02/18 11:20:24;;;;;;;11.18;3.83;;;12.60;99.90;;;;;;5047863;28;20518;-75
2023/02/18 11:22:50;;;;;;;;;;;12.70;99.90;;;;;;5030751;28;20029;-77
2023/02/18 11:25:37;;;;;;;16.73;4.82;;;12.80;99.90;;;;;;5048276;28;19904;-77
2023/02/18 11:28:58;;;;;;;13.93;5.18;;;13.00;99.90;;;;;;5048047;28;20489;-77
2023/02/18 11:31:29;;;;;;;13.18;4.75;;;13.20;99.90;;;;;;4986298;28;20045;-78
2023/02/18 11:33:58;;;;;;;11.27;3.40;;;13.20;99.90;;;;;;5036668;28;20040;-78
2023/02/18 11:36:31;;;;;;;7.70;2.70;;;13.20;99.90;;;;;;5029556;28;20091;-77
2023/02/18 11:39:19;;;;;;;11.30;3.30;;;13.20;99.90;;;;;;5023406;28;20044;-77
2023/02/18 11:41:59;;;;;;;10.65;3.33;;;13.20;99.90;;;;;;5047356;28;20029;-76
2023/02/18 11:44:38;;;;;;;9.93;3.10;;;13.30;99.90;;;;;;5028894;28;20412;-77
2023/02/18 11:47:05;;;;;;;14.15;3.67;;;13.40;99.90;;;;;;5046732;28;20033;-77
2023/02/18 11:49:33;;;;;;;10.82;3.25;;;13.40;99.90;;;;;;5029410;28;20461;-78
2023/02/18 11:52:18;;;;;;;14.80;4.03;;;13.40;99.90;;;;;;5046555;28;20142;-76
2023/02/18 11:55:01;;;;;;;9.07;3.30;;;13.60;99.90;;;;;;5046878;28;20025;-76
2023/02/18 11:57:27;;;;;;;16.38;4.68;;;13.60;99.90;;;;;;5047079;28;20529;-76
2023/02/18 11:59:54;;;;;;;7.93;3.17;;;13.70;99.90;;;;;;5029183;28;20029;-76
2023/02/18 12:02:25;;;;;;;18.73;4.13;;;13.70;99.90;;;;;;5047001;28;20025;-75
2023/02/18 12:04:59;;;;;;;15.23;5.93;;;13.70;99.90;;;;;;5047758;28;20033;-76
2023/02/18 12:07:57;;;;;;;17.75;5.22;;;13.80;99.90;;;;;;5029559;28;20025;-76
2023/02/18 12:10:36;;;;;;;9.93;3.65;;;14.00;99.90;;;;;;5029157;28;20090;-77
2023/02/18 12:13:25;;;;;;;13.88;3.03;;;14.20;99.90;;;;;;5047720;28;20482;-77
2023/02/18 12:16:26;;;;;;;13.98;4.63;;;14.40;99.90;;;;;;5020336;28;20037;-76
2023/02/18 12:19:18;;;;;;;11.82;3.70;;;14.40;99.90;;;;;;5029315;28;20037;-76
2023/02/18 12:22:08;;;;;;;6.90;2.03;;;14.40;99.90;;;;;;5024857;28;20037;-77
2023/02/18 12:24:36;;;;;;;10.75;3.08;;;14.40;99.90;;;;;;5033477;28;20072;-77
2023/02/18 12:27:43;;;;;;;13.25;3.45;;;14.30;99.90;;;;;;5051099;28;20067;-78
2023/02/18 12:30:27;;;;;;;13.00;3.35;;;14.30;99.90;;;;;;4989227;28;20625;-76
2023/02/18 12:33:27;;;;;;;12.95;3.75;;;14.10;99.90;;;;;;5027447;28;20037;-78
2023/02/18 12:36:22;;;;;;;8.85;2.95;;;14.00;99.90;;;;;;5039918;28;20052;-77
2023/02/18 12:39:02;;;;;;;23.40;11.93;;;14.00;99.90;;;;;;5032841;28;20036;-77
2023/02/18 12:41:34;;;;;;;6.03;2.05;;;13.90;99.90;;;;;;5050904;28;20755;-77
2023/02/18 12:44:06;;;;;;;11.77;2.88;;;13.80;99.90;;;;;;5050902;28;20037;-77
2023/02/18 12:47:13;;;;;;;13.20;3.65;;;13.80;99.90;;;;;;5050490;28;20191;-77
2023/02/18 12:49:54;;;;;;;21.40;4.43;;;13.90;99.90;;;;;;5029539;28;20041;-77
2023/02/18 12:52:39;;;;;;;8.38;2.47;;;13.90;99.90;;;;;;5050050;28;20555;-76
2023/02/18 12:55:22;;;;;;;8.40;2.45;;;13.80;99.90;;;;;;5050901;28;20024;-77
2023/02/18 12:58:16;;;;;;;8.13;2.55;;;13.80;99.90;;;;;;5032509;28;20045;-76
2023/02/18 13:01:03;;;;;;;4.05;1.30;;;13.70;99.90;;;;;;5050440;28;20032;-78
2023/02/18 13:03:44;;;;;;;7.63;2.60;;;13.60;99.90;;;;;;5031980;28;20032;-77
2023/02/18 13:06:41;;;;;;;17.13;3.92;;;13.60;99.90;;;;;;5050381;28;20060;-77
2023/02/18 13:09:24;;;;;;;13.32;4.18;;;13.50;99.90;;;;;;5031681;28;20979;-77
2023/02/18 13:12:02;;;;;;;8.20;2.13;;;13.50;99.90;;;;;;5032293;28;20082;-77
2023/02/18 13:14:32;;;;;;;8.52;2.35;;;13.60;99.90;;;;;;5032315;28;20127;-77
2023/02/18 13:17:01;;;;;;;11.82;2.75;;;13.50;99.90;;;;;;5049821;28;20029;-77
2023/02/18 13:19:49;;;;;;;16.25;4.63;;;13.40;99.90;;;;;;5048468;28;20112;-77
2023/02/18 13:22:17;;;;;;;10.88;3.03;;;13.30;99.90;;;;;;5050300;28;20029;-76